• Join FlightAware (Why Join?)
  • Login
  • US Flag 
02:56AM EDT


 

Airport Tracker/Info


-or-


 

Live Flight TrackerFlight Track Log ✈ VH-KNI ✈ 19-Jun-2012 ✈ YBTH / BHS - YMAY / ABX

Flight Track Log - Related Links

Times and Time Zones

All times are in EDT time to prevent confusion due to time zone crossing. See the VH-KNI flight status page for this flight to view local times or setup timezone preferences in your user account.

Time Position Orientation Groundspeed Altitude Reporting Facility
EDT Latitude Longitude Course Direction KTS MPH feet Rate Location/Type
10:02PM -33.4639 149.6408 282° West 95 109 4,700  Level Aus ATC (RADAR)
10:03PM -33.4594 149.6145 283° West 100 115 5,600 1,080 Climbing Aus ATC (RADAR)
10:04PM -33.4557 149.5950 281° West 100 115 6,200 1,080 Climbing Aus ATC (RADAR)
10:04PM -33.4514 149.5693 249° West 100 115 7,100 1,020 Climbing Aus ATC (RADAR)
10:05PM -33.4567 149.5527 254° West 103 119 7,500 540 Climbing Aus ATC (RADAR)
10:06PM -33.4675 149.5091 244° Southwest 124 143 8,000 180 Climbing Aus ATC (RADAR)
10:07PM -33.4823 149.4727 232° Southwest 119 137 8,000  Level Aus ATC (RADAR)
10:08PM -33.5002 149.4449 241° Southwest 125 144 8,000 60 Level Aus ATC (RADAR)
10:09PM -33.5104 149.4228 246° West 127 146 8,100 -180 Climbing Aus ATC (RADAR)
10:09PM -33.5212 149.3939 244° Southwest 123 142 7,800 -60 Descending Aus ATC (RADAR)
10:10PM -33.5371 149.3557 244° Southwest 126 145 8,000 60 Climbing Aus ATC (RADAR)
10:11PM -33.5526 149.3174 240° Southwest 125 144 8,000  Level Aus ATC (RADAR)
10:12PM -33.5705 149.2807 239° Southwest 126 145 8,000  Level Aus ATC (RADAR)
10:13PM -33.5852 149.2511 238° Southwest 122 140 8,000 -120 Level Aus ATC (RADAR)
10:14PM -33.5961 149.2305 240° Southwest 125 144 7,900 -120 Descending Aus ATC (RADAR)
10:14PM -33.6097 149.2028 237° Southwest 127 146 7,900  Level Aus ATC (RADAR)
10:15PM -33.6291 149.1669 238° Southwest 127 146 7,900  Level Aus ATC (RADAR)
10:17PM -33.6527 149.1212 237° Southwest 126 145 8,000  Climbing Aus ATC (RADAR)
10:18PM -33.6707 149.0879 240° Southwest 128 147 8,000  Level Aus ATC (RADAR)
10:18PM -33.6844 149.0592 240° Southwest 128 147 8,000  Level Aus ATC (RADAR)
10:19PM -33.6951 149.0369 240° Southwest 128 147 8,000  Level Aus ATC (RADAR)
10:20PM -33.7114 149.0026 241° Southwest 127 146 8,000  Level Aus ATC (RADAR)
10:21PM -33.7268 148.9696 242° Southwest 136 157 8,000 -60 Level Aus ATC (RADAR)
10:23PM -33.7604 148.8945 242° Southwest 134 154 7,900 -60 Descending Aus ATC (RADAR)
10:23PM -33.7742 148.8634 248° West 124 143 7,900  Level Aus ATC (RADAR)
10:24PM -33.7821 148.8396 254° West 129 148 7,900  Level Aus ATC (RADAR)
10:25PM -33.7882 148.8144 250° West 132 152 7,900  Level Aus ATC (RADAR)
10:25PM -33.7988 148.7793 250° West 129 148 7,900  Level Aus ATC (RADAR)
10:27PM -33.8184 148.7130 245° Southwest 134 154 7,900  Level Aus ATC (RADAR)
10:28PM -33.8344 148.6728 245° Southwest 131 151 7,900  Level Aus ATC (RADAR)
10:29PM -33.8465 148.6421 243° Southwest 140 161 7,900  Level Aus ATC (RADAR)
10:29PM -33.8576 148.6161 244° Southwest 131 151 7,900  Level Aus ATC (RADAR)
10:30PM -33.8699 148.5850 223° Southwest 132 152 7,900  Level Aus ATC (RADAR)
10:32PM -33.9151 148.5346 209° Southwest 137 158 7,900  Level Aus ATC (RADAR)
10:32PM -33.9310 148.5239 205° Southwest 135 155 7,900  Level Aus ATC (RADAR)
10:33PM -33.9587 148.5084 206° Southwest 131 151 7,900  Level Aus ATC (RADAR)
10:34PM -33.9833 148.4938 205° Southwest 131 151 7,900  Level Aus ATC (RADAR)
10:34PM -34.0021 148.4834 212° Southwest 127 146 7,900  Level Aus ATC (RADAR)
10:35PM -34.0274 148.4641 220° Southwest 124 143 7,900 120 Level Aus ATC (RADAR)
10:37PM -34.0708 148.4196 219° Southwest 124 143 8,200 60 Climbing Aus ATC (RADAR)
10:37PM -34.0840 148.4069 220° Southwest 122 140 8,100 -120 Descending Aus ATC (RADAR)
10:38PM -34.1116 148.3791 220° Southwest 124 143 8,100  Level Aus ATC (RADAR)
10:39PM -34.1322 148.3584 218° Southwest 129 148 8,100  Level Aus ATC (RADAR)
10:40PM -34.1480 148.3436 219° Southwest 127 146 8,100  Level Aus ATC (RADAR)
10:40PM -34.1689 148.3235 220° Southwest 125 144 8,100  Level Aus ATC (RADAR)
10:42PM -34.2104 148.2811 220° Southwest 126 145 8,100  Level Aus ATC (RADAR)
10:43PM -34.2370 148.2541 214° Southwest 121 139 8,100  Level Aus ATC (RADAR)
10:44PM -34.2621 148.2334 213° Southwest 129 148 8,100  Level Aus ATC (RADAR)
10:44PM -34.2805 148.2188 216° Southwest 134 154 8,100  Level Aus ATC (RADAR)
10:45PM -34.3035 148.1988 215° Southwest 137 158 8,100  Level Aus ATC (RADAR)
10:46PM -34.3334 148.1736 215° Southwest 132 152 8,100  Level Aus ATC (RADAR)
10:47PM -34.3637 148.1483 215° Southwest 131 151 8,100  Level Aus ATC (RADAR)
10:48PM -34.3931 148.1232 216° Southwest 128 147 8,100  Level Aus ATC (RADAR)
10:49PM -34.4152 148.1040 216° Southwest 127 146 8,100  Level Aus ATC (RADAR)
10:49PM -34.4318 148.0896 217° Southwest 125 144 8,100  Level Aus ATC (RADAR)
10:50PM -34.4531 148.0699 216° Southwest 123 142 8,100  Level Aus ATC (RADAR)
10:51PM -34.4819 148.0448 216° Southwest 129 148 8,100  Level Aus ATC (RADAR)
10:52PM -34.5087 148.0214 215° Southwest 129 148 8,100  Level Aus ATC (RADAR)
10:53PM -34.5408 147.9938 214° Southwest 131 151 8,100  Level Aus ATC (RADAR)
10:54PM -34.5637 147.9751 214° Southwest 134 154 8,100  Level Aus ATC (RADAR)
10:55PM -34.5812 147.9608 214° Southwest 128 147 8,100  Level Aus ATC (RADAR)
10:55PM -34.6033 147.9426 215° Southwest 127 146 8,100  Level Aus ATC (RADAR)
10:56PM -34.6317 147.9182 216° Southwest 125 144 8,100  Level Aus ATC (RADAR)
10:57PM -34.6662 147.8879 215° Southwest 128 147 8,100  Level Aus ATC (RADAR)
10:58PM -34.6958 147.8629 216° Southwest 126 145 8,100  Level Aus ATC (RADAR)
10:59PM -34.7173 147.8439 215° Southwest 128 147 8,100  Level Aus ATC (RADAR)
11:00PM -34.7340 147.8295 217° Southwest 126 145 8,100  Level Aus ATC (RADAR)
11:01PM -34.7573 147.8079 217° Southwest 126 145 8,100 -360 Level Aus ATC (RADAR)
11:02PM -34.8031 147.7652 219° Southwest 144 166 7,300 -420 Descending Aus ATC (RADAR)
11:03PM -34.8283 147.7404 218° Southwest 134 154 7,200 -300 Descending Aus ATC (RADAR)
11:03PM -34.8467 147.7230 223° Southwest 139 160 6,900 -540 Descending Aus ATC (RADAR)
11:04PM -34.8709 147.6953 222° Southwest 146 168 6,500 -600 Descending Aus ATC (RADAR)
11:05PM -34.8885 147.6760 218° Southwest 149 171 6,100 -540 Descending Aus ATC (RADAR)
11:06PM -34.9116 147.6542 219° Southwest 139 160 5,800 -480 Descending Aus ATC (RADAR)
11:07PM -34.9522 147.6146 212° Southwest 128 147 5,100 -540 Descending Aus ATC (RADAR)
11:08PM -34.9799 147.5938 211° Southwest 136 157 4,600 -600 Descending Aus ATC (RADAR)
11:08PM -34.9989 147.5797 206° Southwest 137 158 4,300 -420 Descending Aus ATC (RADAR)
11:09PM -35.0224 147.5659 141° Southeast 120 138 4,100 -360 Descending Aus ATC (RADAR)
11:10PM -35.0615 147.6045 137° Southeast 146 168 3,700 -360 Descending Aus ATC (RADAR)
11:11PM -35.0794 147.6248 161° South 149 171 3,500 -120 Descending Aus ATC (RADAR)
11:12PM -35.0997 147.6333 250° West 139 160 3,600 -240 Climbing Aus ATC (RADAR)
11:13PM -35.1115 147.5947 228° Southwest 109 125 3,100 120 Descending Aus ATC (RADAR)
11:19PM -35.2381 147.4238 182° South 119 137 5,000 300 Climbing Aus ATC (RADAR)
11:20PM -35.2580 147.4231 196° South 126 145 5,400 840 Climbing Aus ATC (RADAR)
11:21PM -35.2853 147.4137 209° Southwest 130 150 6,200 300 Climbing Aus ATC (RADAR)
11:22PM -35.3188 147.3912 205° Southwest 138 159 6,000 -120 Descending Aus ATC (RADAR)
11:23PM -35.3529 147.3714 206° Southwest 134 154 6,000  Level Aus ATC (RADAR)
11:24PM -35.3863 147.3513 210° Southwest 138 159 6,000  Level Aus ATC (RADAR)
11:25PM -35.4127 147.3327 207° Southwest 134 154 6,000  Level Aus ATC (RADAR)
11:25PM -35.4320 147.3207 203° Southwest 132 152 6,000  Level Aus ATC (RADAR)
11:26PM -35.4575 147.3073 202° Southwest 134 154 6,000  Level Aus ATC (RADAR)
11:27PM -35.4914 147.2902 202° Southwest 131 151 6,100  Climbing Aus ATC (RADAR)
11:28PM -35.5331 147.2696 200° South 129 148 6,100  Level Aus ATC (RADAR)
11:29PM -35.5629 147.2566 208° Southwest 137 158 6,100  Level Aus ATC (RADAR)
11:30PM -35.5873 147.2405 211° Southwest 134 154 6,100 -120 Level Aus ATC (RADAR)
11:30PM -35.6058 147.2270 201° Southwest 133 153 6,000 -120 Descending Aus ATC (RADAR)
11:31PM -35.6353 147.2128 206° Southwest 135 155 6,000  Level Aus ATC (RADAR)
11:33PM -35.6965 147.1764 199° South 136 157 6,000  Level Aus ATC (RADAR)
11:34PM -35.7269 147.1639 201° Southwest 138 159 6,000  Level Aus ATC (RADAR)
11:35PM -35.7471 147.1541 205° Southwest 137 158 6,000 -240 Level Aus ATC (RADAR)
11:35PM -35.7723 147.1397 207° Southwest 136 157 5,700 -540 Descending Aus ATC (RADAR)
11:36PM -35.7934 147.1267 212° Southwest 146 168 5,300 -540 Descending Aus ATC (RADAR)
11:37PM -35.8225 147.1044 206° Southwest 151 174 5,000 -1,140 Descending Aus ATC (RADAR)
11:40PM -35.9521 147.0256 360° North 500 -1,320 Descending Aus ATC (Calculated)
11:40PM -35.9521 147.0256 205° Southwest 500  Level Aus ATC (Calculated)
11:44PM -36.0384 146.9752 27° Northeast  Level Estimated
11:45PM -35.0203 147.5986 206° Southwest  Level FlightAware Approximate
11:46PM -35.0408 147.5862 228° Southwest  Level Estimated
11:47PM -35.0551 147.5670 206° Southwest  Level FlightAware Approximate
11:48PM -35.0757 147.5547 206° Southwest  Level Estimated